createdAt,value
2018-05-31T00:02:20.811Z,19.59
2018-05-31T00:04:48.804Z,19.28
2018-05-31T00:07:16.844Z,19.13
2018-05-31T00:09:44.830Z,19.42
2018-05-31T00:12:12.834Z,19.44
2018-05-31T00:14:40.909Z,19.58
2018-05-31T00:17:09.194Z,19.62
2018-05-31T00:19:37.174Z,19.63
2018-05-31T00:22:05.178Z,19.40
2018-05-31T00:24:33.159Z,18.39
2018-05-31T00:27:01.153Z,18.26
2018-05-31T00:29:29.233Z,18.29
2018-05-31T00:31:57.186Z,18.19
2018-05-31T00:34:25.213Z,18.27
2018-05-31T00:36:53.242Z,17.92
2018-05-31T00:39:21.254Z,18.44
2018-05-31T00:41:49.356Z,18.74
2018-05-31T00:44:17.479Z,18.01
2018-05-31T00:46:45.542Z,17.88
2018-05-31T00:49:13.548Z,17.37
2018-05-31T00:51:41.638Z,17.78
2018-05-31T00:54:09.638Z,18.19
2018-05-31T00:56:37.694Z,17.95
2018-05-31T00:59:05.651Z,18.40
2018-05-31T01:01:33.693Z,18.06
2018-05-31T01:04:01.721Z,18.17
2018-05-31T01:06:29.745Z,18.08
2018-05-31T01:08:57.803Z,18.38
2018-05-31T01:11:25.874Z,18.56
2018-05-31T01:13:53.906Z,18.60
2018-05-31T01:16:21.923Z,18.70
2018-05-31T01:18:50.384Z,18.77
2018-05-31T01:21:18.393Z,18.64
2018-05-31T01:23:46.375Z,18.34
2018-05-31T01:26:14.477Z,18.54
2018-05-31T01:28:42.495Z,18.20
2018-05-31T01:31:10.550Z,17.74
2018-05-31T01:33:38.560Z,18.12
2018-05-31T01:36:06.596Z,17.17
2018-05-31T01:38:34.694Z,16.76
2018-05-31T01:41:02.753Z,17.02
2018-05-31T01:43:30.734Z,17.14
2018-05-31T01:45:58.740Z,17.09
2018-05-31T01:48:26.826Z,16.94
2018-05-31T01:50:54.857Z,17.04
2018-05-31T01:53:22.893Z,17.69
2018-05-31T01:55:50.887Z,17.41
2018-05-31T01:58:18.866Z,17.83
2018-05-31T02:00:46.899Z,18.01
2018-05-31T02:03:14.889Z,18.11
2018-05-31T02:05:42.902Z,17.73
2018-05-31T02:08:10.922Z,17.87
2018-05-31T02:10:38.966Z,18.11
2018-05-31T02:13:07.028Z,17.97
2018-05-31T02:15:35.102Z,18.05
2018-05-31T02:18:03.154Z,17.87
2018-05-31T02:20:31.648Z,17.09
2018-05-31T02:22:59.655Z,17.39
2018-05-31T02:25:27.722Z,17.30
2018-05-31T02:27:55.756Z,17.54
2018-05-31T02:30:23.744Z,17.83
2018-05-31T02:32:51.790Z,17.89
2018-05-31T02:35:19.713Z,18.01
2018-05-31T02:37:47.770Z,17.87
2018-05-31T02:40:15.943Z,17.96
2018-05-31T02:42:43.929Z,17.78
2018-05-31T02:45:12.030Z,16.82
2018-05-31T02:47:40.124Z,17.45
2018-05-31T02:50:08.139Z,17.22
2018-05-31T02:52:36.242Z,17.65
2018-05-31T02:55:04.269Z,17.86
2018-05-31T02:57:32.379Z,17.94
2018-05-31T03:00:00.449Z,16.77
2018-05-31T03:02:28.466Z,16.87
2018-05-31T03:04:56.551Z,16.95
2018-05-31T03:07:24.616Z,16.85
2018-05-31T03:09:52.650Z,17.25
2018-05-31T03:12:20.668Z,17.50
2018-05-31T03:14:48.694Z,17.40
2018-05-31T03:17:16.727Z,17.65
2018-05-31T03:19:44.751Z,17.78
2018-05-31T03:22:13.213Z,17.89
2018-05-31T03:24:41.235Z,17.67
2018-05-31T03:27:09.313Z,17.75
2018-05-31T03:29:37.314Z,17.64
2018-05-31T03:32:05.316Z,17.58
2018-05-31T03:34:33.327Z,17.54
2018-05-31T03:37:01.351Z,17.45
2018-05-31T03:39:29.343Z,17.02
2018-05-31T03:41:57.321Z,17.17
2018-05-31T03:44:25.366Z,17.55
2018-05-31T03:46:53.363Z,17.62
2018-05-31T03:49:21.839Z,17.32
2018-05-31T03:51:50.315Z,17.55
2018-05-31T03:54:18.978Z,17.70
2018-05-31T03:56:46.976Z,17.87
2018-05-31T03:59:15.745Z,18.14
2018-05-31T04:01:44.285Z,18.34
2018-05-31T04:04:12.709Z,18.49
2018-05-31T04:06:41.388Z,18.02
2018-05-31T04:09:09.964Z,18.36
2018-05-31T04:11:39.471Z,18.65
2018-05-31T04:14:08.157Z,18.78
2018-05-31T04:16:36.659Z,18.94
2018-05-31T04:19:05.221Z,18.81
2018-05-31T04:21:33.818Z,17.67
2018-05-31T04:24:02.479Z,16.81
2018-05-31T04:26:30.891Z,17.26
2018-05-31T04:28:59.467Z,17.02
2018-05-31T04:31:28.138Z,16.81
2018-05-31T04:33:56.430Z,16.71
2018-05-31T04:36:24.996Z,16.79
2018-05-31T04:38:53.664Z,16.73
2018-05-31T04:41:21.970Z,16.71
2018-05-31T04:43:50.769Z,16.91
2018-05-31T04:46:19.339Z,17.39
2018-05-31T04:48:48.223Z,18.01
2018-05-31T04:51:17.010Z,18.30
2018-05-31T04:53:45.838Z,18.01
2018-05-31T04:56:14.210Z,18.31
2018-05-31T04:58:42.728Z,17.84
2018-05-31T05:01:11.235Z,18.19
2018-05-31T05:03:39.881Z,18.07
2018-05-31T05:06:08.504Z,18.61
2018-05-31T05:08:36.781Z,18.97
2018-05-31T05:11:05.763Z,19.03
2018-05-31T05:13:34.347Z,18.94
2018-05-31T05:16:02.755Z,18.18
2018-05-31T05:18:31.204Z,17.60
2018-05-31T05:20:59.990Z,17.84
2018-05-31T05:23:28.437Z,18.59
2018-05-31T05:25:57.382Z,19.39
2018-05-31T05:28:25.691Z,19.68
2018-05-31T05:30:54.141Z,18.52
2018-05-31T05:33:22.601Z,18.11
2018-05-31T05:35:50.642Z,18.31
2018-05-31T05:38:18.735Z,19.09
2018-05-31T05:40:46.762Z,19.61
2018-05-31T05:43:14.827Z,19.18
2018-05-31T05:45:42.858Z,19.66
2018-05-31T05:48:10.888Z,19.26
2018-05-31T05:50:38.940Z,19.26
2018-05-31T05:53:07.009Z,20.05
2018-05-31T05:55:35.060Z,19.85
2018-05-31T05:58:03.106Z,20.21
2018-05-31T06:00:31.206Z,19.95
2018-05-31T06:02:59.234Z,20.07
2018-05-31T06:05:27.285Z,19.56
2018-05-31T06:07:55.347Z,19.40
2018-05-31T06:10:23.397Z,19.59
2018-05-31T06:12:51.460Z,20.06
2018-05-31T06:15:19.501Z,20.78
2018-05-31T06:17:47.580Z,20.38
2018-05-31T06:20:15.642Z,21.69
2018-05-31T06:22:43.691Z,21.54
2018-05-31T06:25:11.835Z,22.09
2018-05-31T06:27:40.337Z,21.98
2018-05-31T06:30:08.434Z,22.78
2018-05-31T06:32:36.634Z,22.01
2018-05-31T06:35:04.759Z,21.84
2018-05-31T06:37:32.919Z,22.05
2018-05-31T06:40:01.089Z,22.50
2018-05-31T06:42:29.163Z,22.72
2018-05-31T06:44:57.183Z,22.02
2018-05-31T06:47:25.302Z,22.28
2018-05-31T06:49:53.785Z,21.88
2018-05-31T06:52:21.812Z,22.89
2018-05-31T06:54:49.863Z,23.15
2018-05-31T06:57:17.932Z,22.41
2018-05-31T06:59:45.978Z,23.47
2018-05-31T07:02:14.013Z,23.00
2018-05-31T07:04:42.003Z,24.18
2018-05-31T07:07:10.070Z,23.46
2018-05-31T07:09:38.096Z,23.32
2018-05-31T07:12:06.220Z,24.21
2018-05-31T07:14:34.263Z,24.90
2018-05-31T07:17:02.284Z,24.83
2018-05-31T07:19:30.325Z,25.03
2018-05-31T07:21:58.310Z,24.98
2018-05-31T07:24:26.333Z,24.51
2018-05-31T07:26:54.361Z,25.33
2018-05-31T07:29:22.871Z,26.34
2018-05-31T07:31:50.898Z,26.88
2018-05-31T07:34:18.897Z,26.84
2018-05-31T07:36:46.906Z,26.17
2018-05-31T07:39:14.898Z,26.36
2018-05-31T07:41:42.881Z,27.36
2018-05-31T07:44:10.926Z,26.63
2018-05-31T07:46:39.013Z,27.63
2018-05-31T07:49:07.029Z,27.13
2018-05-31T07:51:35.031Z,26.69
2018-05-31T07:54:03.108Z,27.15
2018-05-31T07:56:31.115Z,27.78
2018-05-31T07:58:59.121Z,27.13
2018-05-31T08:01:27.156Z,26.99
2018-05-31T08:03:55.172Z,27.55
2018-05-31T08:06:23.246Z,28.16
2018-05-31T08:08:51.209Z,27.60
2018-05-31T08:11:19.359Z,27.86
2018-05-31T08:13:47.745Z,28.15
2018-05-31T08:16:15.777Z,29.07
2018-05-31T08:18:43.788Z,29.22
2018-05-31T08:21:11.869Z,29.21
2018-05-31T08:23:39.936Z,29.61
2018-05-31T08:26:07.960Z,29.13
2018-05-31T08:28:35.951Z,29.96
2018-05-31T08:31:04.223Z,29.35
2018-05-31T08:33:32.214Z,29.80
2018-05-31T08:36:00.228Z,30.22
2018-05-31T08:38:28.232Z,30.49
2018-05-31T08:40:56.248Z,30.48
2018-05-31T08:43:24.308Z,30.87
2018-05-31T08:45:52.338Z,30.22
2018-05-31T08:48:20.396Z,29.84
2018-05-31T08:50:48.422Z,30.17
2018-05-31T08:53:16.441Z,29.28
2018-05-31T08:55:44.455Z,29.22
2018-05-31T08:58:12.435Z,31.16
2018-05-31T09:00:40.467Z,31.23
2018-05-31T09:03:09.117Z,31.94
2018-05-31T09:05:38.105Z,31.82
2018-05-31T09:08:06.512Z,31.76
2018-05-31T09:10:34.963Z,32.61
2018-05-31T09:13:03.868Z,32.01
2018-05-31T09:15:32.473Z,32.01
2018-05-31T09:18:00.538Z,32.03
2018-05-31T09:20:28.582Z,31.25
2018-05-31T09:22:56.515Z,32.05
2018-05-31T09:25:24.489Z,31.50
2018-05-31T09:27:52.539Z,32.00
2018-05-31T09:30:20.529Z,32.42
2018-05-31T09:32:48.887Z,31.16
2018-05-31T09:35:16.945Z,32.08
2018-05-31T09:37:45.035Z,32.25
2018-05-31T09:40:13.011Z,32.52
2018-05-31T09:42:41.029Z,32.13
2018-05-31T09:45:09.075Z,31.13
2018-05-31T09:47:37.126Z,31.94
2018-05-31T09:50:05.122Z,32.46
2018-05-31T09:52:33.243Z,32.80
2018-05-31T09:55:01.335Z,33.13
2018-05-31T09:57:29.347Z,33.66
2018-05-31T09:59:57.378Z,33.30
2018-05-31T10:02:25.391Z,34.02
2018-05-31T10:04:53.414Z,33.59
2018-05-31T10:07:21.547Z,33.43
2018-05-31T10:09:49.525Z,33.74
2018-05-31T10:12:17.670Z,34.47
2018-05-31T10:14:45.729Z,35.12
2018-05-31T10:17:13.789Z,34.73
2018-05-31T10:19:41.794Z,34.98
2018-05-31T10:22:09.830Z,35.10
2018-05-31T10:24:37.846Z,35.08
2018-05-31T10:27:05.896Z,34.53
2018-05-31T10:29:33.895Z,34.84
2018-05-31T10:32:01.933Z,34.55
2018-05-31T10:34:30.488Z,33.91
2018-05-31T10:36:59.081Z,35.08
2018-05-31T10:39:27.552Z,35.14
2018-05-31T10:41:56.038Z,35.27
2018-05-31T10:44:24.567Z,35.00
2018-05-31T10:46:53.307Z,35.71
2018-05-31T10:49:21.754Z,35.20
2018-05-31T10:51:50.067Z,36.24
2018-05-31T10:54:18.562Z,36.17
2018-05-31T10:56:47.136Z,35.93
2018-05-31T10:59:15.653Z,35.19
2018-05-31T11:01:44.301Z,35.93
2018-05-31T11:04:12.816Z,36.00
2018-05-31T11:06:41.425Z,36.66
2018-05-31T11:09:10.057Z,35.79
2018-05-31T11:11:38.378Z,36.20
2018-05-31T11:14:07.125Z,36.73
2018-05-31T11:16:35.790Z,36.53
2018-05-31T11:19:04.283Z,36.47
2018-05-31T11:21:32.675Z,36.07
2018-05-31T11:24:01.329Z,36.31
2018-05-31T11:26:30.224Z,37.44
2018-05-31T11:28:59.012Z,36.22
2018-05-31T11:31:27.869Z,36.09
2018-05-31T11:33:56.186Z,36.23
2018-05-31T11:36:25.085Z,36.15
2018-05-31T11:38:53.645Z,35.77
2018-05-31T11:41:22.096Z,35.56
2018-05-31T11:43:50.732Z,36.03
2018-05-31T11:46:19.402Z,36.40
2018-05-31T11:48:48.078Z,36.44
2018-05-31T11:51:16.409Z,36.46
2018-05-31T11:53:44.938Z,36.83
2018-05-31T11:56:13.369Z,36.46
2018-05-31T11:58:41.914Z,36.79
2018-05-31T12:01:10.581Z,36.31
2018-05-31T12:03:39.160Z,36.99
2018-05-31T12:06:07.550Z,36.50
2018-05-31T12:08:36.132Z,36.14
2018-05-31T12:11:04.710Z,36.51
2018-05-31T12:13:33.295Z,37.35
2018-05-31T12:16:01.687Z,37.17
2018-05-31T12:18:30.355Z,37.26
2018-05-31T12:20:58.701Z,37.04
2018-05-31T12:23:27.453Z,37.02
2018-05-31T12:25:55.913Z,36.82
2018-05-31T12:28:24.408Z,36.66
2018-05-31T12:30:53.271Z,36.97
2018-05-31T12:33:22.001Z,36.83
2018-05-31T12:35:50.683Z,36.09
2018-05-31T12:38:19.007Z,36.41
2018-05-31T12:40:47.514Z,36.26
2018-05-31T12:43:16.386Z,36.18
2018-05-31T12:45:45.141Z,35.99
2018-05-31T12:48:13.557Z,36.26
2018-05-31T12:50:42.037Z,36.16
2018-05-31T12:53:10.614Z,35.91
2018-05-31T12:55:39.312Z,36.18
2018-05-31T12:58:07.998Z,35.95
2018-05-31T13:00:36.481Z,35.58
2018-05-31T13:03:04.945Z,35.41
2018-05-31T13:05:33.543Z,36.43
2018-05-31T13:08:02.139Z,36.07
2018-05-31T13:10:30.639Z,36.13
2018-05-31T13:12:59.172Z,36.20
2018-05-31T13:15:27.953Z,36.09
2018-05-31T13:17:56.340Z,36.17
2018-05-31T13:20:25.038Z,36.18
2018-05-31T13:22:53.718Z,35.41
2018-05-31T13:25:22.393Z,35.51
2018-05-31T13:27:50.893Z,35.37
2018-05-31T13:30:19.453Z,35.07
2018-05-31T13:32:47.952Z,35.57
2018-05-31T13:35:16.624Z,35.63
2018-05-31T13:37:45.219Z,35.79
2018-05-31T13:40:13.858Z,34.96
2018-05-31T13:42:42.373Z,34.65
2018-05-31T13:45:10.949Z,34.48
2018-05-31T13:47:38.930Z,34.03
2018-05-31T13:50:07.019Z,34.58
2018-05-31T13:52:35.103Z,34.91
2018-05-31T13:55:03.134Z,35.01
2018-05-31T13:57:31.162Z,35.21
2018-05-31T13:59:59.153Z,34.56
2018-05-31T14:02:27.824Z,34.99
2018-05-31T14:04:56.363Z,34.54
2018-05-31T14:07:25.062Z,34.20
2018-05-31T14:09:53.701Z,33.97
2018-05-31T14:12:22.202Z,34.18
2018-05-31T14:14:50.774Z,33.05
2018-05-31T14:17:19.256Z,33.15
2018-05-31T14:19:47.845Z,33.09
2018-05-31T14:22:16.215Z,33.78
2018-05-31T14:24:44.589Z,33.51
2018-05-31T14:27:13.176Z,33.26
2018-05-31T14:29:41.725Z,33.88
2018-05-31T14:32:10.254Z,33.38
2018-05-31T14:34:39.025Z,33.22
2018-05-31T14:37:07.340Z,32.52
2018-05-31T14:39:35.882Z,32.94
2018-05-31T14:42:04.851Z,32.79
2018-05-31T14:44:33.470Z,32.86
2018-05-31T14:47:01.967Z,32.84
2018-05-31T14:49:30.926Z,32.64
2018-05-31T14:51:59.681Z,31.86
2018-05-31T14:54:28.114Z,32.09
2018-05-31T14:56:56.780Z,32.12
2018-05-31T14:59:25.175Z,32.55
2018-05-31T15:01:53.813Z,32.71
2018-05-31T15:04:22.311Z,32.60
2018-05-31T15:06:50.832Z,32.68
2018-05-31T15:09:19.339Z,32.46
2018-05-31T15:11:47.982Z,32.24
2018-05-31T15:14:16.108Z,32.22
2018-05-31T15:16:44.372Z,31.78
2018-05-31T15:19:13.312Z,32.33
2018-05-31T15:21:41.988Z,32.44
2018-05-31T15:24:10.450Z,32.21
2018-05-31T15:26:39.150Z,31.94
2018-05-31T15:29:07.749Z,31.44
2018-05-31T15:31:36.241Z,30.77
2018-05-31T15:34:04.798Z,30.93
2018-05-31T15:36:33.195Z,30.89
2018-05-31T15:39:01.763Z,30.81
2018-05-31T15:41:30.455Z,30.69
2018-05-31T15:43:59.243Z,30.55
2018-05-31T15:46:27.737Z,30.72
2018-05-31T15:48:56.502Z,30.46
2018-05-31T15:51:24.906Z,30.53
2018-05-31T15:53:52.949Z,30.35
2018-05-31T15:56:21.444Z,30.06
2018-05-31T15:58:50.539Z,30.18
2018-05-31T16:01:18.949Z,29.86
2018-05-31T16:03:46.980Z,29.92
2018-05-31T16:06:15.020Z,29.99
2018-05-31T16:08:43.188Z,29.42
2018-05-31T16:11:11.243Z,29.65
2018-05-31T16:13:39.582Z,29.28
2018-05-31T16:16:08.360Z,29.01
2018-05-31T16:18:37.350Z,28.66
2018-05-31T16:21:06.020Z,28.17
2018-05-31T16:23:34.476Z,28.20
2018-05-31T16:26:02.990Z,28.24
2018-05-31T16:28:31.863Z,28.23
2018-05-31T16:31:00.331Z,28.51
2018-05-31T16:33:28.839Z,27.87
2018-05-31T16:35:57.419Z,27.95
2018-05-31T16:38:26.175Z,27.81
2018-05-31T16:40:54.692Z,27.62
2018-05-31T16:43:23.312Z,27.71
2018-05-31T16:45:52.365Z,27.67
2018-05-31T16:48:20.953Z,27.61
2018-05-31T16:50:49.450Z,27.34
2018-05-31T16:53:18.015Z,27.74
2018-05-31T16:55:46.521Z,27.70
2018-05-31T16:58:15.510Z,27.96
2018-05-31T17:00:43.597Z,27.91
2018-05-31T17:03:11.618Z,28.09
2018-05-31T17:05:39.634Z,27.51
2018-05-31T17:08:07.631Z,27.54
2018-05-31T17:10:35.719Z,26.59
2018-05-31T17:13:03.712Z,26.26
2018-05-31T17:15:31.753Z,26.25
2018-05-31T17:17:59.784Z,26.09
2018-05-31T17:20:27.827Z,26.38
2018-05-31T17:22:55.879Z,26.52
2018-05-31T17:25:23.916Z,26.70
2018-05-31T17:27:51.962Z,26.51
2018-05-31T17:30:19.999Z,26.36
2018-05-31T17:32:48.004Z,26.49
2018-05-31T17:35:16.090Z,26.55
2018-05-31T17:37:44.091Z,25.66
2018-05-31T17:40:12.103Z,25.29
2018-05-31T17:42:40.148Z,24.97
2018-05-31T17:45:08.235Z,25.06
2018-05-31T17:47:36.617Z,25.23
2018-05-31T17:50:04.590Z,25.41
2018-05-31T17:52:32.639Z,24.95
2018-05-31T17:55:00.697Z,25.09
2018-05-31T17:57:28.682Z,25.39
2018-05-31T17:59:56.661Z,24.82
2018-05-31T18:02:24.681Z,25.03
2018-05-31T18:04:52.763Z,25.25
2018-05-31T18:07:20.769Z,25.28
2018-05-31T18:09:48.824Z,25.11
2018-05-31T18:12:16.841Z,25.22
2018-05-31T18:14:44.906Z,25.01
2018-05-31T18:17:12.955Z,25.14
2018-05-31T18:19:41.013Z,25.21
2018-05-31T18:22:09.040Z,25.08
2018-05-31T18:24:37.071Z,25.12
2018-05-31T18:27:05.128Z,25.06
2018-05-31T18:29:33.171Z,24.99
2018-05-31T18:32:01.208Z,24.77
2018-05-31T18:34:29.216Z,24.58
2018-05-31T18:36:57.224Z,24.47
2018-05-31T18:39:25.310Z,24.42
2018-05-31T18:41:53.371Z,24.47
2018-05-31T18:44:21.435Z,24.56
2018-05-31T18:46:49.557Z,24.46
2018-05-31T18:49:17.946Z,24.53
2018-05-31T18:51:46.019Z,24.23
2018-05-31T18:54:14.139Z,23.70
2018-05-31T18:56:42.125Z,23.89
2018-05-31T18:59:10.238Z,23.22
2018-05-31T19:01:38.490Z,22.86
2018-05-31T19:04:06.658Z,22.22
2018-05-31T19:06:34.712Z,22.69
2018-05-31T19:09:02.716Z,23.16
2018-05-31T19:11:30.888Z,23.07
2018-05-31T19:13:59.158Z,22.02
2018-05-31T19:16:27.224Z,22.38
2018-05-31T19:19:00.928Z,22.92
2018-05-31T19:21:28.916Z,21.98
2018-05-31T19:23:57.088Z,21.85
2018-05-31T19:26:25.208Z,22.60
2018-05-31T19:28:53.313Z,22.98
2018-05-31T19:31:21.363Z,23.23
2018-05-31T19:33:49.508Z,23.05
2018-05-31T19:36:23.246Z,23.16
2018-05-31T19:38:51.329Z,23.30
2018-05-31T19:41:19.484Z,23.29
2018-05-31T19:43:53.045Z,23.26
2018-05-31T19:46:21.113Z,23.31
2018-05-31T19:48:49.228Z,23.28
2018-05-31T19:54:25.777Z,23.30
2018-05-31T19:56:53.785Z,23.00
2018-05-31T19:59:27.381Z,22.85
2018-05-31T20:02:01.916Z,23.08
2018-05-31T20:04:30.033Z,22.95
2018-05-31T20:06:58.165Z,22.88
2018-05-31T20:09:26.385Z,22.99
2018-05-31T20:11:54.549Z,23.04
2018-05-31T20:14:22.686Z,23.04
2018-05-31T20:16:50.749Z,23.05
2018-05-31T20:19:19.291Z,22.92
2018-05-31T20:21:47.670Z,22.77
2018-05-31T20:24:16.523Z,22.57
2018-05-31T20:26:45.446Z,22.78
2018-05-31T20:29:13.611Z,22.47
2018-05-31T20:31:41.655Z,22.46
2018-05-31T20:34:10.244Z,22.55
2018-05-31T20:36:38.913Z,22.56
2018-05-31T20:39:07.325Z,22.52
2018-05-31T20:41:35.803Z,22.57
2018-05-31T20:44:04.657Z,22.59
2018-05-31T20:46:32.680Z,22.48
2018-05-31T20:49:00.780Z,22.31
2018-05-31T20:51:28.738Z,22.22
2018-05-31T20:53:57.173Z,22.10
2018-05-31T20:56:25.162Z,22.00
2018-05-31T20:58:53.218Z,21.77
2018-05-31T21:01:21.199Z,21.86
2018-05-31T21:03:49.214Z,21.77
2018-05-31T21:06:17.326Z,21.94
2018-05-31T21:08:45.300Z,21.86
2018-05-31T21:11:13.326Z,21.85
2018-05-31T21:13:41.366Z,21.89
2018-05-31T21:16:09.413Z,21.46
2018-05-31T21:18:37.454Z,21.58
2018-05-31T21:21:05.459Z,21.11
2018-05-31T21:23:33.472Z,21.45
2018-05-31T21:26:01.532Z,21.54
2018-05-31T21:28:29.634Z,21.50
2018-05-31T21:30:57.688Z,21.57
2018-05-31T21:33:25.719Z,21.58
2018-05-31T21:35:53.799Z,21.58
2018-05-31T21:38:21.851Z,21.56
2018-05-31T21:40:49.887Z,21.50
2018-05-31T21:43:17.891Z,21.41
2018-05-31T21:45:45.925Z,21.37
2018-05-31T21:48:13.948Z,21.27
2018-05-31T21:50:41.983Z,21.25
2018-05-31T21:53:10.032Z,21.26
2018-05-31T21:55:38.536Z,21.13
2018-05-31T21:58:06.587Z,21.18
2018-05-31T22:00:41.222Z,21.17
2018-05-31T22:03:09.267Z,21.17
2018-05-31T22:05:37.455Z,21.19
2018-05-31T22:08:05.528Z,21.15
2018-05-31T22:10:34.597Z,21.04
2018-05-31T22:13:03.266Z,20.97
2018-05-31T22:15:31.331Z,20.98
2018-05-31T22:17:59.456Z,20.90
2018-05-31T22:20:27.535Z,20.20
2018-05-31T22:22:55.565Z,20.42
2018-05-31T22:25:23.674Z,20.70
2018-05-31T22:27:51.796Z,20.68
2018-05-31T22:30:19.770Z,20.77
2018-05-31T22:32:47.730Z,20.70
2018-05-31T22:35:15.746Z,20.58
2018-05-31T22:37:43.760Z,20.27
2018-05-31T22:40:11.811Z,20.60
2018-05-31T22:42:39.797Z,20.59
2018-05-31T22:45:07.831Z,20.38
2018-05-31T22:47:35.803Z,20.41
2018-05-31T22:50:03.888Z,19.98
2018-05-31T22:52:31.926Z,19.96
2018-05-31T22:54:59.953Z,20.13
2018-05-31T22:57:28.212Z,19.80
2018-05-31T22:59:56.235Z,19.68
2018-05-31T23:02:24.277Z,19.83
2018-05-31T23:04:52.273Z,20.11
2018-05-31T23:07:20.315Z,20.03
2018-05-31T23:09:48.326Z,19.86
2018-05-31T23:12:16.400Z,19.97
2018-05-31T23:14:44.345Z,20.05
2018-05-31T23:17:12.377Z,19.79
2018-05-31T23:19:40.417Z,20.03
2018-05-31T23:22:08.507Z,20.11
2018-05-31T23:24:36.587Z,19.98
2018-05-31T23:27:04.618Z,19.58
2018-05-31T23:29:32.629Z,19.71
2018-05-31T23:32:00.640Z,19.91
2018-05-31T23:34:28.653Z,19.87
2018-05-31T23:36:56.682Z,18.57
2018-05-31T23:39:24.809Z,18.73
2018-05-31T23:41:52.765Z,19.28
2018-05-31T23:44:20.754Z,19.30
2018-05-31T23:46:48.830Z,18.69
2018-05-31T23:49:16.826Z,18.80
2018-05-31T23:51:44.811Z,19.09
2018-05-31T23:54:12.804Z,19.34
2018-05-31T23:56:40.877Z,19.33
2018-05-31T23:59:09.208Z,19.39
